KGSO/GSO METAR and TAF weather

Enter ICAO airport designator
Station Type Date Time Source
KGSO METAR 2022/06/30 01:54 UTC NOAA

KGSO 300154Z 18005KT 10SM FEW050 BKN250 24/21 A3025 RMK AO2 SLP232 T02390211


Station Type Date Time Source
KGSO Decoded METAR 2022/06/30 01:54 UTC NOAA

PIEDMONT TRIAD INTERNATIONAL AIRPORT , NC, United States (KGSO) 36-06N 079-57W 275M
Jun 29, 2022 - 09:54 PM EDT / 2022.06.30 0154 UTC
Wind: from the S (180 degrees) at 6 MPH (5 KT):0
Visibility: 10 mile(s):0
Sky conditions: mostly cloudy
Temperature: 75.0 F (23.9 C)
Dew Point: 70.0 F (21.1 C)
Relative Humidity: 84%
Pressure (altimeter): 30.25 in. Hg (1024 hPa)
ob: KGSO 300154Z 18005KT 10SM FEW050 BKN250 24/21 A3025 RMK AO2 SLP232 T02390211
cycle: 2

Station Type Date Time Source
KGSO TAF 2022/06/29 18:58 UTC NOAA

TAF KGSO 291756Z 2918/3018 16005KT P6SM SCT030 BKN100 BKN250

Example: see airport list